Time;durP1;ratioP1;P1;durP2;ratioP2;P2;SDS_P1;SDS_P2;PMS_P1;PMS_P2;Temp;Humidity;BMP_temperature;BMP_pressure;BME280_temperature;BME280_humidity;BME280_pressure;Samples;Min_cycle;Max_cycle;Signal;HPM_P1;HPM_P2
2023/03/28 00:02:23;;;;;;;11.40;1.80;;;2.70;99.90;;;;;;5067923;28;20086;-74
2023/03/28 00:04:48;;;;;;;10.60;1.42;;;2.70;99.90;;;;;;5044570;28;20036;-74
2023/03/28 00:07:14;;;;;;;8.90;1.95;;;2.70;99.90;;;;;;5077621;28;20123;-75
2023/03/28 00:09:41;;;;;;;13.07;1.65;;;2.60;99.90;;;;;;5060640;28;20044;-75
2023/03/28 00:12:06;;;;;;;9.57;1.10;;;2.50;99.90;;;;;;5062316;28;20400;-75
2023/03/28 00:14:34;;;;;;;14.20;2.05;;;2.70;99.90;;;;;;5049544;28;20043;-74
2023/03/28 00:17:00;;;;;;;10.43;1.50;;;2.80;99.90;;;;;;5081138;28;20044;-74
2023/03/28 00:19:31;;;;;;;12.70;2.00;;;2.20;99.90;;;;;;5077682;28;20059;-75
2023/03/28 00:22:01;;;;;;;10.85;2.05;;;2.50;99.90;;;;;;5054799;28;20067;-75
2023/03/28 00:24:27;;;;;;;12.88;1.58;;;2.70;99.90;;;;;;5069768;28;20040;-75
2023/03/28 00:26:53;;;;;;;16.45;2.15;;;2.50;99.90;;;;;;5071814;28;20101;-74
2023/03/28 00:29:21;;;;;;;12.90;1.55;;;2.50;99.90;;;;;;5063702;28;20052;-75
2023/03/28 00:31:48;;;;;;;8.85;1.48;;;2.60;99.90;;;;;;5062557;28;20481;-75
2023/03/28 00:34:16;;;;;;;10.50;1.80;;;2.40;99.90;;;;;;5072187;28;20508;-74
2023/03/28 00:36:42;;;;;;;9.65;2.05;;;2.40;99.90;;;;;;5049565;28;20044;-75
2023/03/28 00:39:09;;;;;;;8.95;1.60;;;2.40;99.90;;;;;;5060564;28;20058;-75
2023/03/28 00:41:38;;;;;;;12.23;1.70;;;2.40;99.90;;;;;;5060999;28;20051;-74
2023/03/28 00:44:56;;;;;;;10.18;1.45;;;2.40;99.90;;;;;;5063637;28;20475;-75
2023/03/28 00:47:40;;;;;;;16.73;2.38;;;2.30;99.90;;;;;;5043150;28;20499;-74
2023/03/28 00:50:48;;;;;;;9.88;1.52;;;2.30;99.90;;;;;;5048818;28;20040;-75
2023/03/28 00:53:19;;;;;;;12.88;1.83;;;2.30;99.90;;;;;;5001328;28;20098;-74
2023/03/28 00:55:56;;;;;;;8.07;1.40;;;2.30;99.90;;;;;;5049807;28;20083;-73
2023/03/28 00:58:28;;;;;;;11.57;1.60;;;2.20;99.90;;;;;;5050080;28;20523;-73
2023/03/28 01:00:55;;;;;;;13.25;1.90;;;3.00;99.90;;;;;;5036673;28;20040;-74
2023/03/28 01:03:26;;;;;;;8.38;1.65;;;2.10;99.90;;;;;;5057745;28;20486;-73
2023/03/28 01:05:53;;;;;;;13.80;1.60;;;2.40;99.90;;;;;;5060205;28;20046;-73
2023/03/28 01:08:25;;;;;;;11.43;2.20;;;2.10;99.90;;;;;;5056763;28;20087;-73
2023/03/28 01:10:50;;;;;;;11.07;2.00;;;2.00;99.90;;;;;;5065245;28;20055;-73
2023/03/28 01:13:30;;;;;;;11.73;2.40;;;2.00;99.90;;;;;;5037045;28;20044;-74
2023/03/28 01:15:58;;;;;;;9.27;1.48;;;2.00;99.90;;;;;;5075433;28;20044;-74
2023/03/28 01:18:24;;;;;;;15.23;1.75;;;2.00;99.90;;;;;;5057941;28;20032;-74
2023/03/28 01:21:34;;;;;;;13.55;1.38;;;2.00;99.90;;;;;;5061188;28;20044;-75
2023/03/28 01:24:12;;;;;;;16.27;2.25;;;1.90;99.90;;;;;;5026156;28;20496;-75
2023/03/28 01:27:06;;;;;;;10.63;1.50;;;1.90;99.90;;;;;;5038766;28;20090;-77
2023/03/28 01:29:37;;;;;;;12.63;1.33;;;1.90;99.90;;;;;;5061430;28;20131;-74
2023/03/28 01:32:28;;;;;;;8.18;1.17;;;1.90;99.90;;;;;;5059658;28;20040;-74
2023/03/28 01:35:35;;;;;;;16.58;1.45;;;1.90;99.90;;;;;;5040113;28;20100;-74
2023/03/28 01:38:24;;;;;;;9.95;1.65;;;1.90;99.90;;;;;;5036656;28;20595;-73
2023/03/28 01:41:21;;;;;;;14.50;1.65;;;2.60;99.90;;;;;;5040611;28;20056;-73
2023/03/28 01:44:13;;;;;;;10.23;1.60;;;1.80;99.90;;;;;;5043483;28;20086;-73
2023/03/28 01:46:51;;;;;;;12.20;1.60;;;1.70;99.90;;;;;;5043414;28;20067;-77
2023/03/28 01:49:19;;;;;;;8.18;1.30;;;1.70;99.90;;;;;;5028304;28;20056;-78
2023/03/28 01:52:07;;;;;;;9.93;1.50;;;1.70;99.90;;;;;;5047983;28;20052;-79
2023/03/28 01:55:06;;;;;;;11.65;1.67;;;1.70;99.90;;;;;;5028920;28;20045;-78
2023/03/28 01:57:40;;;;;;;9.13;1.85;;;2.40;99.90;;;;;;5046606;28;20075;-78
2023/03/28 02:00:22;;;;;;;16.10;2.60;;;1.60;99.90;;;;;;5054801;28;20045;-78
2023/03/28 02:02:54;;;;;;;19.13;2.75;;;1.60;99.90;;;;;;5042318;28;20060;-77
2023/03/28 02:05:22;;;;;;;10.80;1.60;;;1.60;99.90;;;;;;5027224;28;20413;-77
2023/03/28 02:07:50;;;;;;;11.80;1.95;;;1.60;99.90;;;;;;5054375;28;20630;-78
2023/03/28 02:10:20;;;;;;;11.18;1.65;;;1.60;99.90;;;;;;5052938;28;20065;-79
2023/03/28 02:12:55;;;;;;;10.88;1.42;;;1.50;99.90;;;;;;5050424;28;20447;-79
2023/03/28 02:15:24;;;;;;;12.10;1.38;;;1.50;99.90;;;;;;5050663;28;20049;-80
2023/03/28 02:17:56;;;;;;;10.82;1.50;;;1.50;99.90;;;;;;5046031;28;20210;-79
2023/03/28 02:20:26;;;;;;;14.02;1.60;;;1.60;99.90;;;;;;5049475;28;20039;-77
2023/03/28 02:23:09;;;;;;;9.38;1.48;;;2.00;99.90;;;;;;5044174;28;20580;-77
2023/03/28 02:25:36;;;;;;;9.70;1.42;;;1.50;99.90;;;;;;5049955;28;20164;-78
2023/03/28 02:28:05;;;;;;;13.27;1.35;;;1.50;99.90;;;;;;5056336;28;20059;-77
2023/03/28 02:30:32;;;;;;;8.18;1.48;;;1.40;99.90;;;;;;5035305;28;20044;-78
2023/03/28 02:33:04;;;;;;;13.60;1.88;;;1.40;99.90;;;;;;5045157;28;20056;-78
2023/03/28 02:35:52;;;;;;;8.82;1.48;;;1.40;99.90;;;;;;5043098;28;20069;-78
2023/03/28 02:38:29;;;;;;;10.20;1.92;;;1.40;99.90;;;;;;5043814;28;20053;-78
2023/03/28 02:41:04;;;;;;;15.27;1.70;;;1.70;99.90;;;;;;5051393;28;20056;-78
2023/03/28 02:43:46;;;;;;;17.58;3.15;;;1.30;99.90;;;;;;5029493;28;20435;-77
2023/03/28 02:46:22;;;;;;;14.48;1.80;;;1.30;99.90;;;;;;5040904;28;20412;-77
2023/03/28 02:48:59;;;;;;;14.40;1.85;;;1.30;99.90;;;;;;5049817;28;20106;-78
2023/03/28 02:51:29;;;;;;;16.52;1.35;;;1.30;99.90;;;;;;5037617;28;20523;-78
2023/03/28 02:54:16;;;;;;;9.13;1.45;;;1.30;99.90;;;;;;5056897;28;20056;-78
2023/03/28 02:56:51;;;;;;;10.52;1.35;;;1.30;99.90;;;;;;5048017;28;20059;-77
2023/03/28 02:59:17;;;;;;;8.52;1.33;;;1.30;99.90;;;;;;5047512;28;20539;-77
2023/03/28 03:01:43;;;;;;;12.57;1.83;;;1.20;99.90;;;;;;5050667;28;20045;-76
2023/03/28 03:04:10;;;;;;;12.35;1.58;;;1.20;99.90;;;;;;5052810;28;20155;-77
2023/03/28 03:06:35;;;;;;;12.60;2.92;;;1.80;99.90;;;;;;5048320;28;20109;-77
2023/03/28 03:09:03;;;;;;;10.90;1.20;;;1.20;99.90;;;;;;5051693;28;20052;-77
2023/03/28 03:11:30;;;;;;;10.80;1.50;;;1.10;99.90;;;;;;5039076;28;20055;-77
2023/03/28 03:13:56;;;;;;;12.43;1.77;;;1.10;99.90;;;;;;5059844;28;20055;-79
2023/03/28 03:16:22;;;;;;;17.90;2.15;;;1.10;99.90;;;;;;5052307;28;20040;-78
2023/03/28 03:18:48;;;;;;;10.20;1.75;;;1.10;99.90;;;;;;5051246;28;20041;-78
2023/03/28 03:21:14;;;;;;;15.90;1.80;;;1.10;99.90;;;;;;5054682;28;20043;-78
2023/03/28 03:23:40;;;;;;;12.05;1.75;;;1.20;99.90;;;;;;5048015;28;20124;-78
2023/03/28 03:26:06;;;;;;;8.00;1.70;;;1.00;99.90;;;;;;5053984;28;20127;-78
2023/03/28 03:28:32;;;;;;;10.48;2.13;;;1.00;99.90;;;;;;5044272;28;20127;-78
2023/03/28 03:30:58;;;;;;;9.88;2.13;;;1.00;99.90;;;;;;5049967;28;20052;-78
2023/03/28 03:33:23;;;;;;;9.90;1.33;;;0.90;99.90;;;;;;5053166;28;20527;-78
2023/03/28 03:35:50;;;;;;;13.35;2.40;;;1.00;99.90;;;;;;5045370;28;20052;-78
2023/03/28 03:38:15;;;;;;;13.27;1.83;;;1.00;99.90;;;;;;5047698;28;20048;-79
2023/03/28 03:40:41;;;;;;;13.15;1.60;;;1.00;99.90;;;;;;5066653;28;20052;-79
2023/03/28 03:43:07;;;;;;;14.20;1.95;;;0.90;99.90;;;;;;5045636;28;20048;-79
2023/03/28 03:45:32;;;;;;;8.88;1.58;;;1.80;99.90;;;;;;5060522;28;20041;-79
2023/03/28 03:47:58;;;;;;;10.32;1.98;;;0.90;99.90;;;;;;5061751;28;20091;-78
2023/03/28 03:50:24;;;;;;;13.60;1.73;;;0.90;99.90;;;;;;5067625;28;20185;-79
2023/03/28 03:52:50;;;;;;;14.20;1.48;;;0.80;99.90;;;;;;5073126;28;20044;-79
2023/03/28 03:55:15;;;;;;;11.38;1.60;;;0.80;99.90;;;;;;5059695;28;20825;-78
2023/03/28 03:57:41;;;;;;;9.80;1.52;;;0.80;99.90;;;;;;5075924;28;20429;-78
2023/03/28 04:00:11;;;;;;;10.75;1.92;;;0.70;99.90;;;;;;5038525;28;20284;-78
2023/03/28 04:02:37;;;;;;;10.88;1.45;;;0.80;99.90;;;;;;5062042;28;20393;-78
2023/03/28 04:05:04;;;;;;;14.48;2.40;;;0.70;99.90;;;;;;5073423;28;20082;-78
2023/03/28 04:07:31;;;;;;;12.38;1.90;;;0.70;99.90;;;;;;5060118;28;20106;-78
2023/03/28 04:09:57;;;;;;;11.60;1.77;;;0.80;99.90;;;;;;5074786;28;20048;-78
2023/03/28 04:12:23;;;;;;;14.27;1.80;;;0.80;99.90;;;;;;5067237;28;20051;-78
2023/03/28 04:14:48;;;;;;;11.88;1.98;;;0.60;99.90;;;;;;5066782;28;20048;-80
2023/03/28 04:17:15;;;;;;;14.02;1.75;;;0.60;99.90;;;;;;5078997;28;20036;-79
2023/03/28 04:19:41;;;;;;;12.02;1.90;;;0.60;99.90;;;;;;5056343;28;20040;-80
2023/03/28 04:22:07;;;;;;;11.50;1.83;;;0.60;99.90;;;;;;5072832;28;20067;-79
2023/03/28 04:24:32;;;;;;;10.30;1.83;;;0.60;99.90;;;;;;5047367;28;20496;-79
2023/03/28 04:26:58;;;;;;;9.15;1.90;;;0.60;99.90;;;;;;5059374;28;20151;-79
2023/03/28 04:29:29;;;;;;;15.77;1.80;;;0.60;99.90;;;;;;5042511;28;20049;-79
2023/03/28 04:31:57;;;;;;;12.80;1.75;;;0.50;99.90;;;;;;5065405;28;20067;-79
2023/03/28 04:34:30;;;;;;;11.38;2.25;;;0.50;99.90;;;;;;5065760;28;20040;-79
2023/03/28 04:37:01;;;;;;;12.73;2.70;;;0.50;99.90;;;;;;5042761;28;20095;-79
2023/03/28 04:39:31;;;;;;;10.32;1.33;;;0.50;99.90;;;;;;5063330;28;20054;-78
2023/03/28 04:42:00;;;;;;;9.02;1.48;;;0.50;99.90;;;;;;5061326;28;20109;-80
2023/03/28 04:44:27;;;;;;;9.82;1.77;;;0.80;99.90;;;;;;5064137;28;20508;-80
2023/03/28 04:46:53;;;;;;;12.52;1.80;;;0.50;99.90;;;;;;5071299;28;20043;-79
2023/03/28 04:49:20;;;;;;;10.90;1.67;;;0.50;99.90;;;;;;5054499;28;20584;-78
2023/03/28 04:51:47;;;;;;;10.77;1.83;;;0.50;99.90;;;;;;5052575;28;22415;-78
2023/03/28 04:54:13;;;;;;;10.23;1.95;;;0.60;99.90;;;;;;5070022;28;20063;-79
2023/03/28 04:56:39;;;;;;;11.73;1.58;;;0.40;99.90;;;;;;5056066;28;20048;-80
2023/03/28 04:59:05;;;;;;;11.05;1.95;;;0.50;99.90;;;;;;5072842;28;20094;-78
2023/03/28 05:01:31;;;;;;;12.93;1.83;;;0.60;99.90;;;;;;5062569;28;20040;-78
2023/03/28 05:03:57;;;;;;;16.23;2.05;;;0.30;99.90;;;;;;5052698;28;20072;-78
2023/03/28 05:06:24;;;;;;;14.07;2.03;;;0.40;99.90;;;;;;5054690;28;20059;-79
2023/03/28 05:08:50;;;;;;;7.55;1.92;;;0.70;99.90;;;;;;5073602;28;20093;-80
2023/03/28 05:11:16;;;;;;;14.38;1.90;;;0.50;99.90;;;;;;5052661;28;20053;-79
2023/03/28 05:13:42;;;;;;;12.65;1.80;;;0.50;99.90;;;;;;5051009;28;20528;-80
2023/03/28 05:16:08;;;;;;;12.07;1.60;;;0.40;99.90;;;;;;5071986;28;20028;-80
2023/03/28 05:18:33;;;;;;;8.77;2.45;;;0.40;99.90;;;;;;5055918;28;20064;-80
2023/03/28 05:20:59;;;;;;;11.63;1.73;;;0.60;99.90;;;;;;5053232;28;20459;-79
2023/03/28 05:23:25;;;;;;;13.00;2.65;;;0.50;99.90;;;;;;5053511;28;20041;-79
2023/03/28 05:25:52;;;;;;;13.55;2.40;;;0.50;99.90;;;;;;5066433;28;20040;-79
2023/03/28 05:28:18;;;;;;;13.98;1.85;;;0.50;99.90;;;;;;5078816;28;20056;-80
2023/03/28 05:30:44;;;;;;;8.98;1.63;;;0.50;99.90;;;;;;5031390;28;20155;-80
2023/03/28 05:33:10;;;;;;;8.45;1.95;;;0.60;99.90;;;;;;5030485;28;20045;-79
2023/03/28 05:35:36;;;;;;;14.10;1.92;;;0.70;99.90;;;;;;5045017;28;20053;-81
2023/03/28 05:38:02;;;;;;;12.48;1.98;;;1.00;99.90;;;;;;5030855;28;20516;-80
2023/03/28 05:40:28;;;;;;;9.23;1.58;;;0.60;99.90;;;;;;5048750;28;20415;-79
2023/03/28 05:42:54;;;;;;;9.90;2.00;;;1.10;99.90;;;;;;5035730;28;20048;-79
2023/03/28 05:45:21;;;;;;;12.75;1.70;;;0.70;99.90;;;;;;5030054;28;20059;-79
2023/03/28 05:47:50;;;;;;;9.85;1.52;;;1.00;99.90;;;;;;5047782;28;20049;-78
2023/03/28 05:50:16;;;;;;;13.77;2.03;;;0.70;99.90;;;;;;5067634;28;20050;-78
2023/03/28 05:52:42;;;;;;;15.63;2.40;;;0.70;99.90;;;;;;5058265;28;20040;-78
2023/03/28 05:55:08;;;;;;;9.88;1.67;;;0.70;99.90;;;;;;5044008;28;20039;-79
2023/03/28 05:57:34;;;;;;;10.23;2.05;;;0.80;99.90;;;;;;5031816;28;20045;-78
2023/03/28 06:00:02;;;;;;;19.45;2.20;;;0.80;99.90;;;;;;5060899;28;20135;-78
2023/03/28 06:02:28;;;;;;;9.68;1.85;;;0.80;99.90;;;;;;5008459;28;20065;-79
2023/03/28 06:04:54;;;;;;;13.73;2.08;;;0.80;99.90;;;;;;5032567;28;20127;-78
2023/03/28 06:07:20;;;;;;;15.18;2.10;;;0.80;99.90;;;;;;5034852;28;20041;-78
2023/03/28 06:09:46;;;;;;;12.43;1.85;;;0.90;99.90;;;;;;5020701;28;20323;-78
2023/03/28 06:12:12;;;;;;;9.45;1.90;;;1.50;99.90;;;;;;5041977;28;20122;-79
2023/03/28 06:14:38;;;;;;;11.20;1.90;;;0.90;99.90;;;;;;5011999;28;20037;-78
2023/03/28 06:17:04;;;;;;;14.57;1.90;;;1.30;99.90;;;;;;5043372;28;20393;-79
2023/03/28 06:19:33;;;;;;;13.50;1.80;;;1.00;99.90;;;;;;5024681;28;20040;-78
2023/03/28 06:21:59;;;;;;;15.18;2.35;;;1.10;99.90;;;;;;5040493;28;20060;-78
2023/03/28 06:24:24;;;;;;;12.45;2.83;;;1.10;99.90;;;;;;5015478;28;20531;-78
2023/03/28 06:26:50;;;;;;;15.70;1.92;;;1.10;99.90;;;;;;5021669;28;20290;-78
2023/03/28 06:29:18;;;;;;;16.80;2.25;;;1.20;99.90;;;;;;5015694;28;20051;-78
2023/03/28 06:31:44;;;;;;;8.68;1.60;;;1.20;99.90;;;;;;5045036;28;20067;-78
2023/03/28 06:34:10;;;;;;;13.63;2.47;;;1.30;99.90;;;;;;5019760;28;20044;-77
2023/03/28 06:36:35;;;;;;;11.57;2.03;;;1.30;99.90;;;;;;5046297;28;20037;-78
2023/03/28 06:39:04;;;;;;;13.60;2.25;;;1.40;99.90;;;;;;5034404;28;20051;-78
2023/03/28 06:41:32;;;;;;;15.10;2.00;;;1.50;99.90;;;;;;5026140;28;20490;-77
2023/03/28 06:43:58;;;;;;;10.98;1.85;;;1.50;99.90;;;;;;5028756;28;20040;-78
2023/03/28 06:46:24;;;;;;;15.45;2.42;;;1.50;99.90;;;;;;5044975;28;20051;-78
2023/03/28 06:48:49;;;;;;;13.93;2.05;;;1.60;99.90;;;;;;5047330;28;20063;-78
2023/03/28 06:51:15;;;;;;;9.60;1.52;;;1.70;99.90;;;;;;5024033;28;20033;-78
2023/03/28 06:53:41;;;;;;;10.27;1.30;;;2.40;99.90;;;;;;5050740;28;20601;-78
2023/03/28 06:56:07;;;;;;;7.88;1.50;;;1.80;99.90;;;;;;5046211;28;20037;-77
2023/03/28 06:58:33;;;;;;;9.43;1.50;;;1.80;99.90;;;;;;5057294;28;20060;-79
2023/03/28 07:00:59;;;;;;;11.30;1.98;;;1.90;99.90;;;;;;5050232;28;20916;-78
2023/03/28 07:03:25;;;;;;;15.10;2.10;;;2.00;99.90;;;;;;5048799;28;20041;-77
2023/03/28 07:05:51;;;;;;;11.50;2.13;;;2.00;99.90;;;;;;5050029;28;20573;-78
2023/03/28 07:08:16;;;;;;;12.55;1.85;;;2.40;99.90;;;;;;5041353;28;20515;-77
2023/03/28 07:10:43;;;;;;;10.43;1.48;;;2.40;99.90;;;;;;5043939;28;20055;-77
2023/03/28 07:13:11;;;;;;;9.38;1.38;;;2.10;99.90;;;;;;5050536;28;20041;-77
2023/03/28 07:15:37;;;;;;;10.45;1.65;;;2.20;99.90;;;;;;5047403;28;20041;-78
2023/03/28 07:18:04;;;;;;;15.77;1.92;;;2.30;99.90;;;;;;5035721;28;20115;-79
2023/03/28 07:20:30;;;;;;;10.20;2.00;;;2.60;99.90;;;;;;5039878;28;20111;-77
2023/03/28 07:22:56;;;;;;;12.23;2.00;;;2.80;99.90;;;;;;5038355;28;20131;-78
2023/03/28 07:25:23;;;;;;;10.02;1.95;;;3.10;99.90;;;;;;5043121;28;20124;-78
2023/03/28 07:27:49;;;;;;;9.43;1.85;;;3.40;99.90;;;;;;5021114;28;20045;-78
2023/03/28 07:30:15;;;;;;;11.75;1.80;;;3.70;99.90;;;;;;5053973;28;20041;-78
2023/03/28 07:32:41;;;;;;;10.48;1.77;;;3.90;99.90;;;;;;5045843;28;20116;-78
2023/03/28 07:35:07;;;;;;;10.75;1.73;;;4.20;99.90;;;;;;5040980;28;20056;-78
2023/03/28 07:37:33;;;;;;;7.40;1.63;;;4.50;99.90;;;;;;5030510;28;20606;-78
2023/03/28 07:39:59;;;;;;;12.38;1.85;;;4.90;99.90;;;;;;5032124;28;20055;-78
2023/03/28 07:42:26;;;;;;;8.02;1.40;;;4.90;99.90;;;;;;5038947;28;20048;-77
2023/03/28 07:44:52;;;;;;;10.45;1.88;;;5.10;99.90;;;;;;5020284;28;20036;-78
2023/03/28 07:47:18;;;;;;;8.75;1.65;;;5.40;99.90;;;;;;5042502;28;20036;-78
2023/03/28 07:49:44;;;;;;;7.28;1.50;;;5.90;99.90;;;;;;5032303;28;20065;-79
2023/03/28 07:52:11;;;;;;;9.85;1.27;;;5.80;99.90;;;;;;5043495;28;20048;-78
2023/03/28 07:54:37;;;;;;;9.93;1.45;;;6.00;99.90;;;;;;5044545;28;20043;-78
2023/03/28 07:57:03;;;;;;;7.43;0.90;;;6.70;99.90;;;;;;5027170;28;20044;-77
2023/03/28 07:59:29;;;;;;;10.70;1.38;;;6.50;99.90;;;;;;5016007;28;20290;-77
2023/03/28 08:01:55;;;;;;;6.68;1.42;;;6.60;99.90;;;;;;5035771;28;20060;-78
2023/03/28 08:04:21;;;;;;;8.32;1.38;;;6.70;99.90;;;;;;5041713;28;20041;-78
2023/03/28 08:06:47;;;;;;;7.45;1.00;;;6.70;99.90;;;;;;5038505;28;20052;-77
2023/03/28 08:09:14;;;;;;;7.70;1.00;;;6.70;99.90;;;;;;5029743;28;20114;-77
2023/03/28 08:11:42;;;;;;;5.88;1.05;;;6.60;99.90;;;;;;5044665;28;20091;-78
2023/03/28 08:14:11;;;;;;;4.60;1.05;;;6.60;99.90;;;;;;5040048;28;20075;-78
2023/03/28 08:16:38;;;;;;;6.85;1.35;;;6.50;99.90;;;;;;5018625;28;20049;-77
2023/03/28 08:19:04;;;;;;;4.43;1.17;;;6.50;99.90;;;;;;5036509;28;20052;-78
2023/03/28 08:21:30;;;;;;;7.75;1.38;;;6.40;99.90;;;;;;5036851;28;20069;-77
2023/03/28 08:23:59;;;;;;;4.85;1.15;;;6.40;99.90;;;;;;5039209;28;20045;-78
2023/03/28 08:26:27;;;;;;;6.32;1.27;;;6.40;99.90;;;;;;5054584;28;20823;-78
2023/03/28 08:28:53;;;;;;;8.32;1.35;;;6.30;99.90;;;;;;5029935;28;20041;-79
2023/03/28 08:31:23;;;;;;;8.07;1.40;;;6.20;99.90;;;;;;5039923;28;20041;-78
2023/03/28 08:33:51;;;;;;;11.23;1.98;;;6.20;99.90;;;;;;5027328;28;20099;-78
2023/03/28 08:36:17;;;;;;;11.45;1.40;;;6.20;99.90;;;;;;5040683;28;20041;-78
2023/03/28 08:38:45;;;;;;;8.50;1.63;;;6.10;99.90;;;;;;5029239;28;20460;-78
2023/03/28 08:41:49;;;;;;;9.45;1.50;;;6.10;99.90;;;;;;5039261;28;20722;-78
2023/03/28 08:44:55;;;;;;;10.02;1.95;;;6.10;99.90;;;;;;5016835;28;20506;-78
2023/03/28 08:47:27;;;;;;;5.30;1.33;;;6.20;99.90;;;;;;5022120;28;20594;-78
2023/03/28 08:50:07;;;;;;;5.78;1.52;;;6.20;99.90;;;;;;5036356;28;20619;-78
2023/03/28 08:52:34;;;;;;;5.55;1.20;;;6.20;99.90;;;;;;5053369;28;20048;-78
2023/03/28 08:55:22;;;;;;;7.35;1.50;;;6.30;99.90;;;;;;5036969;28;20418;-77
2023/03/28 08:57:52;;;;;;;7.97;1.27;;;6.40;99.90;;;;;;5028534;28;20905;-77
2023/03/28 09:00:31;;;;;;;6.80;1.35;;;6.50;99.90;;;;;;5012454;28;20620;-77
2023/03/28 09:02:59;;;;;;;8.70;1.58;;;6.60;99.90;;;;;;5018795;28;20045;-78
2023/03/28 09:05:55;;;;;;;5.63;1.52;;;6.70;99.90;;;;;;5030111;28;20110;-77
2023/03/28 09:08:24;;;;;;;10.95;1.60;;;6.80;99.90;;;;;;5040160;28;20075;-77
2023/03/28 09:11:02;;;;;;;10.10;1.40;;;6.90;99.90;;;;;;5036248;28;20367;-77
2023/03/28 09:13:40;;;;;;;4.97;1.27;;;6.90;99.90;;;;;;5045085;28;20414;-77
2023/03/28 09:16:37;;;;;;;7.25;1.10;;;7.00;99.90;;;;;;5061008;28;20079;-76
2023/03/28 09:19:42;;;;;;;8.13;1.30;;;7.00;99.90;;;;;;5031409;28;20072;-76
2023/03/28 09:22:35;;;;;;;6.90;1.10;;;7.10;99.90;;;;;;5055714;28;20076;-76
2023/03/28 09:25:27;;;;;;;4.70;1.00;;;6.80;99.90;;;;;;5037927;28;20090;-77
2023/03/28 09:27:56;;;;;;;;;;;7.30;99.90;;;;;;5032187;28;20782;-76
2023/03/28 09:30:27;;;;;;;3.38;0.75;;;7.20;99.90;;;;;;5029786;28;19924;-77
2023/03/28 09:32:57;;;;;;;6.75;1.08;;;7.20;99.90;;;;;;5043193;28;20129;-76
2023/03/28 09:35:26;;;;;;;5.32;1.05;;;7.30;99.90;;;;;;5043603;28;20041;-76
2023/03/28 09:38:05;;;;;;;3.25;0.80;;;7.20;99.90;;;;;;5037461;28;20051;-76
2023/03/28 09:40:33;;;;;;;3.50;0.70;;;7.20;99.90;;;;;;5045431;28;20128;-77
2023/03/28 09:43:27;;;;;;;7.88;1.02;;;7.20;99.90;;;;;;5039902;28;20069;-77
2023/03/28 09:46:03;;;;;;;4.43;1.10;;;7.20;99.90;;;;;;5038283;28;20131;-77
2023/03/28 09:48:35;;;;;;;4.63;0.82;;;7.10;99.90;;;;;;5040674;28;20051;-77
2023/03/28 09:51:01;;;;;;;;;;;7.10;99.90;;;;;;5032907;28;20477;-79
2023/03/28 09:53:35;;;;;;;5.15;0.90;;;7.10;99.90;;;;;;5029661;28;19924;-78
2023/03/28 09:56:24;;;;;;;7.03;1.20;;;7.00;99.90;;;;;;5036538;28;20041;-78
2023/03/28 09:58:53;;;;;;;7.82;0.82;;;7.00;99.90;;;;;;5047520;28;20055;-78
2023/03/28 10:01:30;;;;;;;4.20;0.98;;;7.10;99.90;;;;;;5050652;28;20072;-78
2023/03/28 10:03:56;;;;;;;5.95;1.00;;;7.10;99.90;;;;;;5050657;28;20044;-78
2023/03/28 10:06:28;;;;;;;6.43;1.40;;;7.10;99.90;;;;;;5033168;28;20033;-79
2023/03/28 10:09:18;;;;;;;6.95;1.35;;;7.20;99.90;;;;;;5020240;28;20064;-76
2023/03/28 10:12:08;;;;;;;3.70;1.10;;;7.20;99.90;;;;;;5041897;28;20098;-75
2023/03/28 10:14:40;;;;;;;4.93;1.25;;;7.20;99.90;;;;;;5047952;28;20157;-76
2023/03/28 10:17:10;;;;;;;;;;;7.30;99.90;;;;;;5040529;28;20040;-75
2023/03/28 10:19:42;;;;;;;8.52;1.20;;;7.40;99.90;;;;;;5033073;28;19956;-76
2023/03/28 10:22:15;;;;;;;7.32;0.98;;;7.40;99.90;;;;;;5033900;28;20485;-76
2023/03/28 10:24:44;;;;;;;7.55;1.30;;;7.50;99.90;;;;;;5048769;28;20036;-77
2023/03/28 10:27:38;;;;;;;4.03;1.17;;;7.50;99.90;;;;;;5027291;28;20058;-76
2023/03/28 10:30:21;;;;;;;4.75;0.95;;;7.50;99.90;;;;;;5042947;28;20120;-76
2023/03/28 10:33:09;;;;;;;5.78;1.20;;;7.50;99.90;;;;;;5042209;28;20055;-76
2023/03/28 10:35:40;;;;;;;6.57;1.30;;;7.60;99.90;;;;;;5036984;28;20048;-76
2023/03/28 10:38:16;;;;;;;7.97;1.25;;;7.70;99.90;;;;;;5040902;28;20045;-76
2023/03/28 10:40:52;;;;;;;6.10;1.35;;;7.70;99.90;;;;;;5049018;28;20055;-76
2023/03/28 10:43:17;;;;;;;5.57;1.50;;;7.50;99.90;;;;;;5040261;28;20059;-76
2023/03/28 10:45:49;;;;;;;8.48;1.63;;;7.50;99.90;;;;;;5040541;28;20163;-76
2023/03/28 10:48:20;;;;;;;7.45;1.42;;;7.60;99.90;;;;;;5033587;28;20127;-77
2023/03/28 10:50:52;;;;;;;6.45;1.52;;;7.70;99.90;;;;;;5039986;28;20041;-76
2023/03/28 10:53:44;;;;;;;7.88;1.95;;;7.70;99.90;;;;;;5039889;28;20052;-76
2023/03/28 10:56:13;;;;;;;7.07;1.73;;;7.70;99.90;;;;;;5057389;28;20563;-77
2023/03/28 10:59:07;;;;;;;8.00;2.10;;;7.70;99.90;;;;;;5039438;28;20170;-75
2023/03/28 11:01:53;;;;;;;9.32;1.73;;;7.70;99.90;;;;;;5043710;28;20052;-75
2023/03/28 11:04:50;;;;;;;7.20;1.80;;;7.70;99.90;;;;;;5035697;28;20493;-76
2023/03/28 11:07:28;;;;;;;7.30;1.85;;;7.70;99.90;;;;;;5040058;28;20053;-74
2023/03/28 11:10:11;;;;;;;8.65;1.80;;;7.70;99.90;;;;;;5039225;28;20067;-75
2023/03/28 11:12:42;;;;;;;10.07;1.77;;;7.70;99.90;;;;;;5025452;28;20087;-76
2023/03/28 11:15:23;;;;;;;8.80;2.10;;;7.70;99.90;;;;;;5028715;28;20085;-76
2023/03/28 11:18:23;;;;;;;6.47;2.08;;;7.70;99.90;;;;;;5036763;28;20060;-76
2023/03/28 11:21:07;;;;;;;6.65;1.83;;;7.70;99.90;;;;;;5040033;28;20130;-77
2023/03/28 11:23:43;;;;;;;6.03;1.67;;;7.70;99.90;;;;;;5050801;28;20171;-77
2023/03/28 11:26:26;;;;;;;8.35;1.63;;;7.70;99.90;;;;;;5039909;28;20060;-78
2023/03/28 11:29:11;;;;;;;8.25;2.28;;;7.70;99.90;;;;;;5053653;28;20041;-78
2023/03/28 11:31:43;;;;;;;10.88;2.33;;;7.80;99.90;;;;;;5043520;28;20040;-77
2023/03/28 11:34:11;;;;;;;9.38;1.92;;;7.80;99.90;;;;;;5036143;28;20040;-77
2023/03/28 11:36:48;;;;;;;8.55;1.83;;;7.90;99.90;;;;;;5048205;28;20132;-80
2023/03/28 11:39:22;;;;;;;8.45;2.05;;;7.90;99.90;;;;;;5044703;28;20775;-77
2023/03/28 11:41:50;;;;;;;6.65;2.00;;;8.00;99.90;;;;;;5038583;28;20060;-77
2023/03/28 11:44:27;;;;;;;9.30;2.20;;;8.30;99.90;;;;;;5044571;28;20044;-78
2023/03/28 11:47:24;;;;;;;7.47;1.98;;;8.10;99.90;;;;;;5040422;28;20049;-77
2023/03/28 11:49:58;;;;;;;6.82;1.60;;;8.00;99.90;;;;;;5041311;28;20131;-75
2023/03/28 11:52:36;;;;;;;8.23;2.20;;;8.10;99.90;;;;;;5041675;28;20397;-77
2023/03/28 11:55:37;;;;;;;8.13;2.22;;;8.10;99.90;;;;;;5034035;28;20044;-76
2023/03/28 11:58:23;;;;;;;7.35;1.77;;;8.10;99.90;;;;;;4983352;28;20487;-76
2023/03/28 12:01:23;;;;;;;6.93;1.85;;;8.10;99.90;;;;;;5050916;28;20057;-76
2023/03/28 12:04:10;;;;;;;8.40;2.30;;;8.10;99.90;;;;;;5037174;28;21737;-77
2023/03/28 12:07:01;;;;;;;7.07;2.03;;;8.20;99.90;;;;;;5034213;28;20040;-77
2023/03/28 12:10:04;;;;;;;8.35;2.13;;;8.20;99.90;;;;;;5035597;28;20041;-73
2023/03/28 12:12:58;;;;;;;11.52;1.90;;;8.20;99.90;;;;;;5031796;28;20041;-73
2023/03/28 12:15:51;;;;;;;11.77;1.98;;;8.20;99.90;;;;;;5017955;28;20064;-73
2023/03/28 12:18:31;;;;;;;7.57;2.40;;;8.40;99.90;;;;;;5039603;28;20410;-72
2023/03/28 12:21:00;;;;;;;7.35;2.60;;;8.40;99.90;;;;;;5036979;28;20053;-72
2023/03/28 12:23:50;;;;;;;8.57;2.03;;;8.50;99.90;;;;;;5040474;28;20278;-73
2023/03/28 12:26:37;;;;;;;9.15;2.00;;;8.30;99.90;;;;;;5033801;28;20136;-76
2023/03/28 12:29:17;;;;;;;9.23;2.28;;;8.40;99.90;;;;;;5041591;28;20129;-76
2023/03/28 12:31:46;;;;;;;7.50;2.63;;;8.60;99.90;;;;;;5042455;28;20410;-75
2023/03/28 12:34:34;;;;;;;8.68;2.17;;;8.50;99.90;;;;;;5041553;28;20465;-76
2023/03/28 12:37:17;;;;;;;8.52;2.05;;;8.50;99.90;;;;;;5040788;28;20048;-76
2023/03/28 12:39:58;;;;;;;7.32;2.30;;;8.60;99.90;;;;;;5029779;28;20368;-76
2023/03/28 12:42:27;;;;;;;8.20;2.40;;;8.50;99.90;;;;;;5042870;28;20063;-77
2023/03/28 12:45:00;;;;;;;9.32;2.33;;;8.90;99.90;;;;;;5040509;28;20052;-77
2023/03/28 12:47:35;;;;;;;11.18;2.70;;;8.50;99.90;;;;;;5054705;28;20040;-76
2023/03/28 12:50:06;;;;;;;6.68;2.00;;;8.50;99.90;;;;;;5037856;28;20040;-77
2023/03/28 12:52:40;;;;;;;6.80;2.10;;;8.40;99.90;;;;;;5039390;28;20045;-77
2023/03/28 12:55:26;;;;;;;8.10;2.80;;;8.50;99.90;;;;;;5038746;28;20052;-78
2023/03/28 12:58:10;;;;;;;8.90;2.15;;;8.50;99.90;;;;;;5031258;28;20045;-75
2023/03/28 13:00:49;;;;;;;7.45;2.10;;;8.40;99.90;;;;;;5051963;28;20052;-76
2023/03/28 13:03:15;;;;;;;9.95;2.67;;;8.40;99.90;;;;;;5045510;28;20513;-77
2023/03/28 13:06:05;;;;;;;7.68;2.70;;;8.40;99.90;;;;;;5014384;28;20160;-77
2023/03/28 13:09:11;;;;;;;7.47;2.40;;;8.50;99.90;;;;;;5039728;28;20709;-78
2023/03/28 13:12:11;;;;;;;7.10;2.58;;;8.50;99.90;;;;;;5024220;28;20045;-76
2023/03/28 13:14:41;;;;;;;6.80;2.10;;;8.60;99.90;;;;;;5023465;28;20512;-77
2023/03/28 13:17:20;;;;;;;8.52;2.75;;;8.60;99.90;;;;;;5034416;28;20178;-72
2023/03/28 13:19:54;;;;;;;8.85;2.40;;;8.60;99.90;;;;;;5035782;28;20878;-72
2023/03/28 13:22:49;;;;;;;6.65;2.30;;;8.70;99.90;;;;;;5026057;28;20463;-72
2023/03/28 13:25:20;;;;;;;12.30;2.80;;;8.80;99.90;;;;;;5027317;28;20037;-72